createdAt,value
2017-08-03T00:00:55.054Z,88.51
2017-08-03T00:01:55.096Z,88.31
2017-08-03T00:02:55.129Z,87.83
2017-08-03T00:03:55.168Z,88.22
2017-08-03T00:04:55.209Z,88.12
2017-08-03T00:05:54.918Z,87.74
2017-08-03T00:06:55.277Z,88.99
2017-08-03T00:07:54.994Z,89.28
2017-08-03T00:08:55.360Z,89.37
2017-08-03T00:09:55.389Z,89.47
2017-08-03T00:10:55.435Z,89.28
2017-08-03T00:11:55.465Z,89.62
2017-08-03T00:12:55.502Z,89.95
2017-08-03T00:13:55.540Z,89.14
2017-08-03T00:14:55.575Z,88.95
2017-08-03T00:15:55.612Z,88.85
2017-08-03T00:16:55.649Z,88.85
2017-08-03T00:17:55.685Z,89.04
2017-08-03T00:18:55.726Z,88.27
2017-08-03T00:19:55.756Z,88.17
2017-08-03T00:20:55.803Z,88.41
2017-08-03T00:21:55.840Z,88.65
2017-08-03T00:22:55.868Z,88.85
2017-08-03T00:23:55.912Z,89.14
2017-08-03T00:24:55.944Z,88.95
2017-08-03T00:25:55.983Z,89.72
2017-08-03T00:26:56.021Z,90.2
2017-08-03T00:27:56.060Z,90.1
2017-08-03T00:28:56.101Z,90.88
2017-08-03T00:29:56.128Z,90.39
2017-08-03T00:30:56.167Z,90.58
2017-08-03T00:31:56.211Z,90.39
2017-08-03T00:32:55.923Z,90
2017-08-03T00:33:56.276Z,90.48
2017-08-03T00:34:56.315Z,90.64
2017-08-03T00:35:56.353Z,90.34
2017-08-03T00:36:56.393Z,90.58
2017-08-03T00:37:56.469Z,90.64
2017-08-03T00:38:56.913Z,90.73
2017-08-03T00:39:56.622Z,90.44
2017-08-03T00:40:56.992Z,90.54
2017-08-03T00:41:56.694Z,91.41
2017-08-03T00:42:57.209Z,91.5
2017-08-03T00:43:57.235Z,91.6
2017-08-03T00:44:57.274Z,91.12
2017-08-03T00:45:56.984Z,91.12
2017-08-03T00:46:57.018Z,91.12
2017-08-03T00:47:57.385Z,90.54
2017-08-03T00:48:57.433Z,90.34
2017-08-03T00:49:57.457Z,90.54
2017-08-03T00:50:57.494Z,90.44
2017-08-03T00:51:57.529Z,90.73
2017-08-03T00:52:57.651Z,90.44
2017-08-03T00:53:58.024Z,90.73
2017-08-03T00:54:58.048Z,90.73
2017-08-03T00:55:58.086Z,90.64
2017-08-03T00:56:58.128Z,90.25
2017-08-03T00:57:58.162Z,89.96
2017-08-03T00:58:58.198Z,90.92
2017-08-03T00:59:58.239Z,90.92
2017-08-03T01:00:58.749Z,91.02
2017-08-03T01:01:58.784Z,91.02
2017-08-03T01:02:58.817Z,90.83
2017-08-03T01:03:58.863Z,90.83
2017-08-03T01:04:58.889Z,91.02
2017-08-03T01:05:58.929Z,91.02
2017-08-03T01:06:59.366Z,91.02
2017-08-03T01:07:59.410Z,91.21
2017-08-03T01:08:59.436Z,90.83
2017-08-03T01:09:59.474Z,91.31
2017-08-03T01:10:59.522Z,91.79
2017-08-03T01:11:59.548Z,92.56
2017-08-03T01:12:59.576Z,92.76
2017-08-03T01:13:59.624Z,92.85
2017-08-03T01:14:59.332Z,92.56
2017-08-03T01:16:00.086Z,93.14
2017-08-03T01:16:59.796Z,94.49
2017-08-03T01:18:00.555Z,94.87
2017-08-03T01:19:00.590Z,94.87
2017-08-03T01:20:00.628Z,94.68
2017-08-03T01:21:00.663Z,94.59
2017-08-03T01:22:00.704Z,94.87
2017-08-03T01:23:01.136Z,94.39
2017-08-03T01:24:01.176Z,94.2
2017-08-03T01:25:01.214Z,93.91
2017-08-03T01:26:00.992Z,94.29
2017-08-03T01:27:01.750Z,94.68
2017-08-03T01:28:02.216Z,94.49
2017-08-03T01:29:02.254Z,94.39
2017-08-03T01:30:02.285Z,94.78
2017-08-03T01:31:02.325Z,95.07
2017-08-03T01:32:02.362Z,94.2
2017-08-03T01:33:02.396Z,95.07
2017-08-03T01:34:02.434Z,95.26
2017-08-03T01:35:02.475Z,95.26
2017-08-03T01:36:02.509Z,94.39
2017-08-03T01:37:02.542Z,95.07
2017-08-03T01:38:02.253Z,95.16
2017-08-03T01:39:02.292Z,94.2
2017-08-03T01:40:02.650Z,94.78
2017-08-03T01:41:02.361Z,95.94
2017-08-03T01:42:02.735Z,97.19
2017-08-03T01:43:02.767Z,96.7
2017-08-03T01:44:02.474Z,96.22
2017-08-03T01:45:03.189Z,95.64
2017-08-03T01:46:03.231Z,95.07
2017-08-03T01:47:03.260Z,94.87
2017-08-03T01:48:03.294Z,95.26
2017-08-03T01:49:03.335Z,95.07
2017-08-03T01:50:03.374Z,95.16
2017-08-03T01:51:03.419Z,95.07
2017-08-03T01:52:03.456Z,94.87
2017-08-03T01:53:03.558Z,94.97
2017-08-03T01:54:03.279Z,95.26
2017-08-03T01:55:03.622Z,95.36
2017-08-03T01:56:03.419Z,95.07
2017-08-03T01:57:03.636Z,95.16
2017-08-03T01:58:03.841Z,95.26
2017-08-03T01:59:03.873Z,95.26
2017-08-03T02:00:03.580Z,95.07
2017-08-03T02:01:03.619Z,94.29
2017-08-03T02:02:03.669Z,94.59
2017-08-03T02:03:04.136Z,94.39
2017-08-03T02:04:04.156Z,95.16
2017-08-03T02:05:04.212Z,95.94
2017-08-03T02:06:04.295Z,96.12
2017-08-03T02:07:03.934Z,96.42
2017-08-03T02:08:04.462Z,96.37
2017-08-03T02:09:04.505Z,96.27
2017-08-03T02:10:04.440Z,96.17
2017-08-03T02:11:04.860Z,96.17
2017-08-03T02:12:04.884Z,96.66
2017-08-03T02:13:05.006Z,97.81
2017-08-03T02:14:05.388Z,97.72
2017-08-03T02:15:05.133Z,97.14
2017-08-03T02:16:05.862Z,97.14
2017-08-03T02:17:05.570Z,97.24
2017-08-03T02:18:05.929Z,97.24
2017-08-03T02:19:05.973Z,96.56
2017-08-03T02:20:06.008Z,96.37
2017-08-03T02:21:05.711Z,96.17
2017-08-03T02:22:06.465Z,96.27
2017-08-03T02:23:06.498Z,96.46
2017-08-03T02:24:06.527Z,96.08
2017-08-03T02:25:06.232Z,95.79
2017-08-03T02:26:06.604Z,95.98
2017-08-03T02:27:06.637Z,97.62
2017-08-03T02:28:06.669Z,96.75
2017-08-03T02:29:06.713Z,96.66
2017-08-03T02:30:06.485Z,96.56
2017-08-03T02:31:06.790Z,96.56
2017-08-03T02:32:06.493Z,96.37
2017-08-03T02:33:06.857Z,96.08
2017-08-03T02:34:06.900Z,96.08
2017-08-03T02:35:06.938Z,96.08
2017-08-03T02:36:06.965Z,95.98
2017-08-03T02:37:07.011Z,96.37
2017-08-03T02:38:07.045Z,96.27
2017-08-03T02:39:07.073Z,96.17
2017-08-03T02:40:07.110Z,96.46
2017-08-03T02:41:07.159Z,96.75
2017-08-03T02:42:07.183Z,97.14
2017-08-03T02:43:07.223Z,97.04
2017-08-03T02:44:07.257Z,97.14
2017-08-03T02:45:07.302Z,96.94
2017-08-03T02:46:07.000Z,97.33
2017-08-03T02:47:07.038Z,97.33
2017-08-03T02:48:07.785Z,98.19
2017-08-03T02:49:07.830Z,99.16
2017-08-03T02:50:07.856Z,98.97
2017-08-03T02:51:07.898Z,98.29
2017-08-03T02:52:07.602Z,98
2017-08-03T02:53:07.967Z,99.06
2017-08-03T02:54:08.012Z,98.39
2017-08-03T02:55:08.048Z,98.63
2017-08-03T02:56:07.751Z,98.63
2017-08-03T02:57:08.194Z,98.44
2017-08-03T02:58:08.230Z,99.11
2017-08-03T02:59:08.263Z,98.82
2017-08-03T03:00:08.509Z,98.63
2017-08-03T03:01:08.340Z,98.54
2017-08-03T03:02:08.044Z,98.14
2017-08-03T03:03:08.414Z,98.24
2017-08-03T03:04:08.535Z,98.72
2017-08-03T03:05:08.573Z,99.01
2017-08-03T03:06:08.283Z,98.63
2017-08-03T03:07:08.648Z,97.76
2017-08-03T03:08:08.687Z,98.44
2017-08-03T03:09:08.718Z,97.96
2017-08-03T03:10:08.762Z,99.21
2017-08-03T03:11:08.795Z,99.88
2017-08-03T03:12:08.824Z,99.11
2017-08-03T03:13:08.863Z,98.82
2017-08-03T03:14:08.904Z,98.44
2017-08-03T03:15:08.610Z,98.24
2017-08-03T03:16:08.645Z,97.91
2017-08-03T03:17:09.396Z,97.96
2017-08-03T03:18:09.428Z,99.99
2017-08-03T03:19:09.465Z,99.49
2017-08-03T03:20:09.505Z,99.01
2017-08-03T03:21:09.209Z,99.01
2017-08-03T03:22:09.572Z,98.44
2017-08-03T03:23:09.613Z,98.05
2017-08-03T03:24:09.643Z,97.81
2017-08-03T03:25:09.986Z,98.19
2017-08-03T03:26:09.720Z,98.24
2017-08-03T03:27:09.761Z,98.97
2017-08-03T03:28:09.793Z,99.16
2017-08-03T03:29:09.831Z,98.72
2017-08-03T03:30:09.870Z,98.77
2017-08-03T03:31:09.905Z,98.97
2017-08-03T03:32:09.941Z,98.19
2017-08-03T03:33:10.355Z,98.58
2017-08-03T03:34:10.395Z,98.39
2017-08-03T03:35:10.098Z,97.76
2017-08-03T03:36:10.465Z,97.81
2017-08-03T03:37:10.505Z,97.52
2017-08-03T03:38:10.537Z,97.24
2017-08-03T03:39:10.571Z,97.33
2017-08-03T03:40:10.611Z,97.24
2017-08-03T03:41:10.647Z,97.62
2017-08-03T03:42:11.084Z,98.87
2017-08-03T03:43:11.116Z,99.99
2017-08-03T03:44:11.152Z,99.99
2017-08-03T03:45:10.864Z,99.99
2017-08-03T03:46:11.226Z,99.99
2017-08-03T03:47:10.940Z,99.99
2017-08-03T03:48:11.293Z,99.35
2017-08-03T03:49:11.338Z,99.16
2017-08-03T03:50:11.380Z,98.77
2017-08-03T03:51:11.411Z,98.68
2017-08-03T03:52:11.451Z,98.49
2017-08-03T03:53:11.479Z,98.39
2017-08-03T03:54:11.520Z,98.68
2017-08-03T03:55:11.222Z,98.34
2017-08-03T03:56:11.590Z,97.86
2017-08-03T03:57:11.626Z,97.57
2017-08-03T03:58:11.668Z,97.38
2017-08-03T03:59:11.369Z,97.86
2017-08-03T04:00:13.173Z,98.72
2017-08-03T04:01:12.158Z,99.99
2017-08-03T04:02:12.195Z,99.99
2017-08-03T04:03:12.229Z,99.99
2017-08-03T04:04:11.934Z,99.99
2017-08-03T04:05:12.311Z,99.99
2017-08-03T04:06:12.334Z,99.99
2017-08-03T04:07:12.375Z,99.99
2017-08-03T04:08:12.084Z,99.99
2017-08-03T04:09:12.447Z,99.99
2017-08-03T04:10:12.483Z,99.99
2017-08-03T04:11:12.511Z,99.99
2017-08-03T04:12:12.231Z,99.99
2017-08-03T04:13:12.593Z,99.99
2017-08-03T04:14:12.634Z,99.21
2017-08-03T04:15:12.334Z,99.02
2017-08-03T04:16:12.708Z,98.54
2017-08-03T04:17:12.744Z,98.92
2017-08-03T04:18:12.772Z,99.99
2017-08-03T04:19:12.816Z,98.92
2017-08-03T04:20:12.843Z,99.02
2017-08-03T04:21:12.883Z,98.72
2017-08-03T04:22:12.921Z,98.63
2017-08-03T04:23:12.956Z,98.15
2017-08-03T04:24:12.996Z,97.96
2017-08-03T04:25:12.703Z,99.3
2017-08-03T04:26:13.435Z,99.11
2017-08-03T04:27:13.469Z,98.44
2017-08-03T04:28:13.503Z,97.67
2017-08-03T04:29:13.538Z,98.82
2017-08-03T04:30:13.581Z,98.34
2017-08-03T04:31:13.616Z,98.05
2017-08-03T04:32:13.648Z,98.05
2017-08-03T04:33:13.684Z,98.05
2017-08-03T04:34:13.724Z,98.05
2017-08-03T04:35:13.757Z,98.15
2017-08-03T04:36:13.797Z,99.11
2017-08-03T04:37:14.217Z,99.11
2017-08-03T04:38:14.255Z,98.63
2017-08-03T04:39:14.290Z,98.05
2017-08-03T04:40:14.319Z,97.86
2017-08-03T04:41:14.026Z,98.24
2017-08-03T04:42:14.774Z,97.96
2017-08-03T04:43:14.812Z,97.57
2017-08-03T04:44:14.849Z,97.76
2017-08-03T04:45:14.884Z,97.38
2017-08-03T04:46:14.985Z,97.67
2017-08-03T04:47:14.956Z,97.62
2017-08-03T04:48:14.994Z,97.91
2017-08-03T04:49:14.700Z,97.52
2017-08-03T04:50:15.118Z,97.19
2017-08-03T04:51:15.154Z,97.24
2017-08-03T04:52:15.193Z,98.39
2017-08-03T04:53:15.603Z,99.07
2017-08-03T04:54:15.634Z,99.74
2017-08-03T04:55:15.666Z,98.92
2017-08-03T04:56:15.719Z,98.34
2017-08-03T04:57:15.418Z,98.24
2017-08-03T04:58:15.780Z,97.67
2017-08-03T04:59:15.819Z,97.47
2017-08-03T05:00:15.858Z,97.47
2017-08-03T05:01:16.094Z,97.47
2017-08-03T05:02:16.310Z,97.47
2017-08-03T05:03:16.340Z,97.57
2017-08-03T05:04:16.389Z,97.47
2017-08-03T05:05:16.421Z,97.67
2017-08-03T05:06:16.451Z,98.77
2017-08-03T05:07:16.493Z,98.97
2017-08-03T05:08:16.528Z,98.49
2017-08-03T05:09:16.564Z,98.2
2017-08-03T05:10:16.281Z,97.72
2017-08-03T05:11:16.638Z,97.52
2017-08-03T05:12:16.681Z,97.33
2017-08-03T05:13:16.713Z,97.14
2017-08-03T05:14:16.749Z,97.14
2017-08-03T05:15:16.788Z,97.33
2017-08-03T05:16:16.822Z,97.52
2017-08-03T05:17:17.254Z,98.68
2017-08-03T05:18:17.301Z,99.07
2017-08-03T05:19:17.332Z,99.26
2017-08-03T05:20:17.369Z,99.07
2017-08-03T05:21:17.416Z,99.16
2017-08-03T05:22:17.443Z,99.35
2017-08-03T05:23:17.497Z,98.49
2017-08-03T05:24:17.517Z,97.91
2017-08-03T05:25:17.653Z,98.34
2017-08-03T05:26:17.590Z,97.67
2017-08-03T05:27:17.625Z,97.28
2017-08-03T05:28:18.068Z,97.28
2017-08-03T05:29:18.104Z,97.28
2017-08-03T05:30:18.141Z,96.51
2017-08-03T05:31:18.180Z,95.84
2017-08-03T05:32:18.221Z,95.88
2017-08-03T05:33:18.248Z,95.69
2017-08-03T05:34:18.287Z,95.31
2017-08-03T05:35:18.398Z,95.01
2017-08-03T05:36:18.430Z,94.82
2017-08-03T05:37:18.463Z,95.5
2017-08-03T05:38:18.613Z,95.21
2017-08-03T05:39:18.646Z,94.92
2017-08-03T05:40:18.685Z,94.82
2017-08-03T05:41:19.005Z,95.35
2017-08-03T05:42:18.755Z,94.48
2017-08-03T05:43:18.466Z,94.48
2017-08-03T05:44:18.903Z,94.2
2017-08-03T05:45:18.945Z,93.9
2017-08-03T05:46:19.006Z,95.06
2017-08-03T05:47:19.027Z,94.87
2017-08-03T05:48:19.063Z,95.93
2017-08-03T05:49:19.093Z,96.31
2017-08-03T05:50:19.140Z,96.8
2017-08-03T05:51:18.910Z,96.22
2017-08-03T05:52:19.261Z,95.06
2017-08-03T05:53:19.680Z,94.38
2017-08-03T05:54:20.049Z,94.14
2017-08-03T05:55:20.084Z,93.76
2017-08-03T05:56:20.514Z,93.27
2017-08-03T05:57:20.542Z,92.65
2017-08-03T05:58:20.583Z,92.25
2017-08-03T05:59:20.620Z,91.14
2017-08-03T06:00:20.654Z,90.75
2017-08-03T06:01:20.705Z,89.54
2017-08-03T06:02:20.729Z,88.81
2017-08-03T06:03:20.770Z,87.27
2017-08-03T06:04:20.478Z,87.75
2017-08-03T06:05:21.240Z,88.23
2017-08-03T06:06:21.274Z,88.43
2017-08-03T06:07:21.315Z,88.53
2017-08-03T06:08:21.739Z,88.29
2017-08-03T06:09:21.445Z,88.29
2017-08-03T06:10:22.163Z,88.87
2017-08-03T06:11:22.201Z,88.67
2017-08-03T06:12:22.238Z,88.67
2017-08-03T06:13:22.276Z,88.57
2017-08-03T06:14:22.324Z,88.48
2017-08-03T06:15:22.353Z,88.39
2017-08-03T06:16:22.395Z,87.71
2017-08-03T06:17:22.438Z,86.78
2017-08-03T06:18:22.464Z,85.86
2017-08-03T06:19:22.502Z,85.57
2017-08-03T06:20:22.558Z,85.13
2017-08-03T06:21:22.584Z,83.77
2017-08-03T06:22:22.621Z,82.65
2017-08-03T06:23:22.328Z,82.2
2017-08-03T06:24:23.081Z,81.33
2017-08-03T06:25:23.108Z,81.33
2017-08-03T06:26:23.146Z,81.13
2017-08-03T06:27:23.188Z,81.43
2017-08-03T06:28:23.227Z,81.97
2017-08-03T06:29:23.265Z,82.26
2017-08-03T06:30:23.700Z,82.75
2017-08-03T06:31:23.417Z,83
2017-08-03T06:32:23.779Z,83.18
2017-08-03T06:33:23.815Z,83.28
2017-08-03T06:34:23.850Z,83.09
2017-08-03T06:35:23.896Z,83.18
2017-08-03T06:36:24.337Z,84.11
2017-08-03T06:37:24.383Z,83.92
2017-08-03T06:38:24.421Z,84.84
2017-08-03T06:39:24.450Z,85.33
2017-08-03T06:40:24.949Z,85.72
2017-08-03T06:41:24.840Z,86.2
2017-08-03T06:42:24.627Z,86.69
2017-08-03T06:43:24.614Z,87.27
2017-08-03T06:44:24.647Z,87.17
2017-08-03T06:45:24.686Z,86.88
2017-08-03T06:46:24.400Z,86.78
2017-08-03T06:47:24.828Z,87.07
2017-08-03T06:48:24.984Z,87.75
2017-08-03T06:49:24.620Z,87.36
2017-08-03T06:50:24.878Z,87.95
2017-08-03T06:51:24.914Z,88.04
2017-08-03T06:52:24.961Z,87.99
2017-08-03T06:53:24.998Z,88.48
2017-08-03T06:54:25.034Z,88.48
2017-08-03T06:55:25.070Z,88.39
2017-08-03T06:56:25.115Z,88.43
2017-08-03T06:57:25.557Z,87.99
2017-08-03T06:58:25.592Z,88.43
2017-08-03T06:59:25.633Z,87.55
2017-08-03T07:00:25.669Z,87.55
2017-08-03T07:01:25.441Z,87.12
2017-08-03T07:02:25.745Z,86.82
2017-08-03T07:03:25.782Z,85.61
2017-08-03T07:04:25.495Z,85.41
2017-08-03T07:05:25.533Z,84.74
2017-08-03T07:06:25.572Z,85.13
2017-08-03T07:07:25.943Z,84.83
2017-08-03T07:08:25.650Z,84.83
2017-08-03T07:09:26.018Z,84.83
2017-08-03T07:10:26.152Z,84.64
2017-08-03T07:11:26.588Z,85.03
2017-08-03T07:12:25.903Z,84.35
2017-08-03T07:13:26.271Z,84.35
2017-08-03T07:14:27.343Z,84.06
2017-08-03T07:15:27.045Z,82.8
2017-08-03T07:16:27.081Z,83.09
2017-08-03T07:17:27.123Z,83.15
2017-08-03T07:18:27.161Z,82.95
2017-08-03T07:19:27.197Z,83.25
2017-08-03T07:20:27.238Z,84.08
2017-08-03T07:21:27.363Z,84.17
2017-08-03T07:22:27.384Z,84.75
2017-08-03T07:23:27.399Z,84.75
2017-08-03T07:24:27.848Z,84.94
2017-08-03T07:25:28.032Z,84.94
2017-08-03T07:26:28.018Z,84.84
2017-08-03T07:27:28.073Z,84.75
2017-08-03T07:28:28.094Z,84.84
2017-08-03T07:29:28.138Z,84.75
2017-08-03T07:30:27.848Z,84.11
2017-08-03T07:31:28.209Z,83.15
2017-08-03T07:32:28.245Z,82.22
2017-08-03T07:33:28.291Z,81.93
2017-08-03T07:34:28.339Z,81
2017-08-03T07:35:28.368Z,80.36
2017-08-03T07:36:28.403Z,79.68
2017-08-03T07:37:28.442Z,78.94
2017-08-03T07:38:28.479Z,79.04
2017-08-03T07:39:28.525Z,77.34
2017-08-03T07:40:28.238Z,77.2
2017-08-03T07:41:28.955Z,77.59
2017-08-03T07:42:28.996Z,78.91
2017-08-03T07:43:29.031Z,78.52
2017-08-03T07:44:29.069Z,79.45
2017-08-03T07:45:29.109Z,80.42
2017-08-03T07:46:29.147Z,80.47
2017-08-03T07:47:29.186Z,81.35
2017-08-03T07:48:29.228Z,81.73
2017-08-03T07:49:29.262Z,81.73
2017-08-03T07:50:29.305Z,81.54
2017-08-03T07:51:29.349Z,81.54
2017-08-03T07:52:29.390Z,80.87
2017-08-03T07:53:29.418Z,80.77
2017-08-03T07:54:29.486Z,80.03
2017-08-03T07:55:29.495Z,79.35
2017-08-03T07:56:29.535Z,79.45
2017-08-03T07:57:29.574Z,79.45
2017-08-03T07:58:29.613Z,79.45
2017-08-03T07:59:29.654Z,79.84
2017-08-03T08:00:29.688Z,80.52
2017-08-03T08:01:30.127Z,80.62
2017-08-03T08:02:30.160Z,80.52
2017-08-03T08:03:30.197Z,81.48
2017-08-03T08:04:30.240Z,82.45
2017-08-03T08:05:30.278Z,82.32
2017-08-03T08:06:30.312Z,82.6
2017-08-03T08:07:30.352Z,83
2017-08-03T08:08:30.393Z,83.09
2017-08-03T08:09:30.444Z,83.38
2017-08-03T08:10:30.865Z,83.77
2017-08-03T08:11:30.910Z,84.25
2017-08-03T08:12:30.618Z,84.45
2017-08-03T08:13:30.653Z,84.01
2017-08-03T08:14:31.100Z,84.41
2017-08-03T08:15:31.144Z,83.77
2017-08-03T08:16:30.850Z,83.67
2017-08-03T08:17:30.892Z,82.8
2017-08-03T08:18:31.655Z,82.32
2017-08-03T08:19:31.693Z,82.07
2017-08-03T08:20:31.740Z,81.77
2017-08-03T08:21:32.186Z,81.58
2017-08-03T08:22:32.216Z,81.48
2017-08-03T08:23:32.261Z,81.77
2017-08-03T08:24:32.302Z,82.17
2017-08-03T08:25:32.732Z,82.41
2017-08-03T08:26:32.780Z,81.87
2017-08-03T08:27:32.815Z,82.41
2017-08-03T08:28:32.845Z,82.32
2017-08-03T08:29:32.557Z,82.26
2017-08-03T08:30:32.921Z,82.94
2017-08-03T08:31:32.637Z,83.09
2017-08-03T08:32:32.998Z,83.77
2017-08-03T08:33:33.037Z,84.16
2017-08-03T08:34:33.073Z,85.03
2017-08-03T08:35:33.122Z,84.89
2017-08-03T08:36:33.152Z,85.47
2017-08-03T08:37:33.188Z,85.52
2017-08-03T08:38:33.232Z,86.49
2017-08-03T08:39:33.270Z,86.78
2017-08-03T08:40:33.303Z,86.49
2017-08-03T08:41:33.351Z,86.88
2017-08-03T08:42:33.387Z,86.74
2017-08-03T08:43:33.425Z,86.83
2017-08-03T08:44:33.463Z,87.81
2017-08-03T08:45:33.169Z,87.23
2017-08-03T08:46:33.907Z,87.51
2017-08-03T08:47:33.615Z,87.27
2017-08-03T08:48:33.978Z,87.81
2017-08-03T08:49:34.018Z,87.71
2017-08-03T08:50:34.058Z,87.55
2017-08-03T08:51:34.099Z,87.36
2017-08-03T08:52:33.804Z,86.3
2017-08-03T08:53:34.168Z,86.82
2017-08-03T08:54:34.251Z,85.66
2017-08-03T08:55:34.692Z,85.8
2017-08-03T08:56:34.728Z,85.41
2017-08-03T08:57:34.779Z,85.31
2017-08-03T08:58:35.206Z,84.97
2017-08-03T08:59:35.245Z,84.25
2017-08-03T09:00:35.279Z,84.45
2017-08-03T09:01:35.334Z,84.83
2017-08-03T09:02:35.360Z,85.03
2017-08-03T09:03:35.070Z,85.03
2017-08-03T09:04:35.478Z,85.03
2017-08-03T09:05:35.625Z,85.08
2017-08-03T09:06:35.555Z,85.28
2017-08-03T09:07:35.263Z,85.66
2017-08-03T09:08:35.327Z,85.47
2017-08-03T09:09:35.671Z,84.69
2017-08-03T09:10:35.708Z,84.89
2017-08-03T09:11:35.745Z,85.08
2017-08-03T09:12:35.785Z,84.41
2017-08-03T09:13:35.827Z,84.41
2017-08-03T09:14:35.859Z,84.99
2017-08-03T09:15:35.575Z,84.89
2017-08-03T09:16:36.323Z,84.84
2017-08-03T09:17:36.817Z,85.33
2017-08-03T09:18:36.857Z,85.14
2017-08-03T09:19:36.900Z,85.24
2017-08-03T09:20:36.941Z,85.52
2017-08-03T09:21:37.040Z,85.82
2017-08-03T09:22:37.020Z,86.49
2017-08-03T09:23:37.053Z,86.2
2017-08-03T09:24:36.759Z,85.72
2017-08-03T09:25:37.130Z,85.82
2017-08-03T09:26:37.178Z,86.1
2017-08-03T09:27:36.875Z,86.2
2017-08-03T09:28:37.348Z,86.49
2017-08-03T09:29:37.816Z,85.72
2017-08-03T09:30:37.747Z,85.52
2017-08-03T09:31:37.792Z,84.75
2017-08-03T09:32:37.845Z,84.56
2017-08-03T09:33:37.869Z,84.75
2017-08-03T09:34:38.177Z,84.79
2017-08-03T09:35:37.933Z,84.89
2017-08-03T09:36:38.063Z,84.99
2017-08-03T09:37:38.097Z,84.99
2017-08-03T09:38:38.139Z,85.18
2017-08-03T09:39:38.179Z,85.08
2017-08-03T09:40:38.285Z,84.99
2017-08-03T09:41:38.320Z,84.89
2017-08-03T09:42:38.361Z,84.6
2017-08-03T09:43:38.400Z,85.08
2017-08-03T09:44:38.435Z,84.79
2017-08-03T09:45:38.852Z,84.99
2017-08-03T09:46:38.889Z,85.37
2017-08-03T09:47:38.930Z,85.62
2017-08-03T09:48:39.371Z,85.91
2017-08-03T09:49:39.108Z,86.49
2017-08-03T09:50:39.431Z,86.69
2017-08-03T09:51:39.911Z,86.78
2017-08-03T09:52:40.401Z,87.36
2017-08-03T09:53:40.092Z,86.69
2017-08-03T09:54:40.461Z,87.55
2017-08-03T09:55:40.491Z,87.65
2017-08-03T09:56:40.543Z,87.36
2017-08-03T09:57:40.578Z,88.04
2017-08-03T09:58:40.609Z,87.65
2017-08-03T09:59:40.649Z,87.55
2017-08-03T10:00:40.692Z,87.27
2017-08-03T10:01:40.824Z,88.23
2017-08-03T10:02:40.834Z,87.36
2017-08-03T10:03:40.875Z,87.07
2017-08-03T10:04:40.975Z,87.7
2017-08-03T10:05:41.100Z,87.5
2017-08-03T10:06:41.380Z,87.7
2017-08-03T10:07:41.407Z,87.16
2017-08-03T10:08:41.469Z,87.45
2017-08-03T10:09:41.492Z,87.06
2017-08-03T10:10:41.524Z,86.87
2017-08-03T10:11:41.645Z,86.48
2017-08-03T10:12:41.682Z,86.33
2017-08-03T10:13:42.183Z,85.8
2017-08-03T10:14:42.141Z,85.94
2017-08-03T10:15:42.185Z,85.36
2017-08-03T10:16:41.935Z,85.99
2017-08-03T10:17:42.739Z,85.55
2017-08-03T10:18:42.395Z,85.94
2017-08-03T10:19:43.205Z,85.65
2017-08-03T10:20:43.643Z,86.43
2017-08-03T10:21:43.360Z,86.72
2017-08-03T10:22:44.114Z,87.2
2017-08-03T10:23:44.149Z,86.72
2017-08-03T10:24:44.236Z,87.01
2017-08-03T10:25:44.672Z,86.43
2017-08-03T10:26:45.023Z,85.94
2017-08-03T10:27:45.066Z,85.79
2017-08-03T10:28:45.114Z,85.5
2017-08-03T10:29:45.147Z,84.82
2017-08-03T10:30:45.268Z,84.96
2017-08-03T10:31:45.304Z,85.25
2017-08-03T10:32:45.443Z,84.57
2017-08-03T10:33:46.251Z,83.89
2017-08-03T10:34:46.252Z,83.31
2017-08-03T10:35:46.289Z,82.97
2017-08-03T10:36:46.326Z,82.03
2017-08-03T10:37:46.369Z,81.06
2017-08-03T10:38:46.432Z,79.45
2017-08-03T10:39:46.850Z,78.56
2017-08-03T10:40:46.991Z,77.04
2017-08-03T10:41:47.023Z,75.26
2017-08-03T10:42:47.066Z,74.23
2017-08-03T10:43:47.109Z,73.68
2017-08-03T10:44:47.137Z,73.39
2017-08-03T10:45:47.566Z,72.84
2017-08-03T10:46:47.596Z,72.71
2017-08-03T10:47:47.631Z,73.88
2017-08-03T10:48:47.351Z,74.13
2017-08-03T10:49:48.190Z,75.01
2017-08-03T10:50:48.332Z,75.75
2017-08-03T10:51:48.047Z,76.5
2017-08-03T10:52:48.804Z,77.43
2017-08-03T10:53:49.240Z,77.82
2017-08-03T10:54:49.296Z,79.14
2017-08-03T10:55:49.417Z,79.97
2017-08-03T10:56:49.534Z,80.62
2017-08-03T10:57:49.899Z,80.71
2017-08-03T10:58:49.998Z,81.65
2017-08-03T10:59:50.052Z,82.13
2017-08-03T11:00:50.097Z,81.84
2017-08-03T11:01:49.820Z,82.42
2017-08-03T11:02:50.236Z,82.48
2017-08-03T11:03:49.884Z,82.48
2017-08-03T11:04:50.659Z,82.87
2017-08-03T11:05:50.372Z,83.06
2017-08-03T11:06:50.761Z,82.87
2017-08-03T11:07:50.802Z,82.67
2017-08-03T11:08:50.819Z,82.67
2017-08-03T11:09:50.934Z,82.57
2017-08-03T11:10:50.997Z,82.57
2017-08-03T11:11:51.441Z,82.13
2017-08-03T11:12:51.135Z,81.35
2017-08-03T11:13:51.965Z,80.71
2017-08-03T11:14:52.098Z,80.36
2017-08-03T11:15:52.559Z,80.17
2017-08-03T11:16:52.244Z,79.24
2017-08-03T11:17:53.040Z,78.66
2017-08-03T11:18:53.062Z,78.75
2017-08-03T11:19:53.102Z,78.66
2017-08-03T11:20:53.550Z,78.27
2017-08-03T11:21:53.257Z,78.46
2017-08-03T11:22:53.323Z,78.56
2017-08-03T11:23:53.661Z,78.75
2017-08-03T11:24:53.700Z,79.04
2017-08-03T11:25:53.752Z,79.82
2017-08-03T11:26:53.803Z,79.88
2017-08-03T11:27:53.488Z,80.17
2017-08-03T11:28:53.854Z,80.36
2017-08-03T11:29:53.581Z,80.56
2017-08-03T11:30:53.930Z,80.85
2017-08-03T11:31:54.044Z,80.66
2017-08-03T11:32:54.158Z,81.14
2017-08-03T11:33:54.527Z,80.76
2017-08-03T11:34:54.560Z,81.14
2017-08-03T11:35:54.611Z,80.56
2017-08-03T11:36:54.321Z,80.56
2017-08-03T11:37:54.681Z,80.27
2017-08-03T11:38:54.394Z,80.66
2017-08-03T11:39:54.497Z,80.17
2017-08-03T11:40:54.925Z,79.78
2017-08-03T11:41:54.955Z,79.72
2017-08-03T11:42:54.675Z,79.82
2017-08-03T11:43:55.120Z,79.82
2017-08-03T11:44:55.158Z,79.59
2017-08-03T11:45:54.936Z,80.21
2017-08-03T11:46:55.328Z,79.72
2017-08-03T11:47:55.346Z,80.46
2017-08-03T11:48:55.386Z,80.66
2017-08-03T11:49:55.812Z,80.94
2017-08-03T11:50:55.852Z,81.04
2017-08-03T11:51:55.889Z,81.14
2017-08-03T11:52:55.936Z,81.24
2017-08-03T11:53:55.975Z,80.76
2017-08-03T11:54:56.011Z,80.17
2017-08-03T11:55:56.304Z,79.82
2017-08-03T11:56:56.086Z,79.63
2017-08-03T11:57:55.802Z,79.43
2017-08-03T11:58:56.242Z,79.24
2017-08-03T11:59:56.284Z,79.38
2017-08-03T12:00:56.422Z,79.47
2017-08-03T12:01:56.365Z,79.38
2017-08-03T12:02:56.433Z,79.08
2017-08-03T12:03:56.458Z,79.57
2017-08-03T12:04:56.566Z,79.76
2017-08-03T12:05:56.602Z,80.35
2017-08-03T12:06:56.644Z,80.5
2017-08-03T12:07:56.681Z,80.99
2017-08-03T12:08:56.725Z,80.79
2017-08-03T12:09:56.761Z,80.5
2017-08-03T12:10:57.172Z,79.28
2017-08-03T12:11:57.213Z,79.08
2017-08-03T12:12:57.657Z,78.69
2017-08-03T12:13:57.380Z,79.02
2017-08-03T12:14:57.411Z,78.92
2017-08-03T12:15:58.212Z,78.53
2017-08-03T12:16:57.926Z,78.73
2017-08-03T12:17:58.297Z,78.63
2017-08-03T12:18:58.334Z,77.95
2017-08-03T12:19:58.372Z,77.86
2017-08-03T12:20:58.091Z,77.6
2017-08-03T12:21:58.853Z,77.6
2017-08-03T12:22:58.901Z,77.21
2017-08-03T12:23:58.934Z,77.11
2017-08-03T12:24:59.065Z,77.99
2017-08-03T12:25:58.692Z,77.7
2017-08-03T12:26:59.431Z,78.09
2017-08-03T12:27:59.661Z,78.58
2017-08-03T12:28:59.706Z,78.58
2017-08-03T12:29:59.742Z,78.09
2017-08-03T12:30:59.448Z,77.89
2017-08-03T12:32:00.271Z,77.73
2017-08-03T12:33:00.409Z,77.54
2017-08-03T12:34:00.122Z,77.29
2017-08-03T12:35:00.480Z,76.8
2017-08-03T12:36:00.189Z,77.09
2017-08-03T12:37:00.567Z,76.61
2017-08-03T12:38:00.603Z,76.57
2017-08-03T12:39:00.645Z,77.15
2017-08-03T12:40:00.693Z,76.96
2017-08-03T12:41:00.720Z,77.58
2017-08-03T12:42:00.764Z,76.9
2017-08-03T12:43:00.802Z,76.9
2017-08-03T12:44:00.843Z,76.86
2017-08-03T12:45:01.290Z,77.25
2017-08-03T12:46:01.332Z,77.93
2017-08-03T12:47:01.798Z,77.99
2017-08-03T12:48:01.929Z,78.09
2017-08-03T12:49:02.294Z,78.28
2017-08-03T12:50:02.332Z,77.8
2017-08-03T12:51:02.044Z,77.7
2017-08-03T12:52:02.464Z,77.64
2017-08-03T12:53:02.919Z,77.34
2017-08-03T12:54:02.952Z,76.7
2017-08-03T12:55:02.994Z,76.45
2017-08-03T12:56:02.698Z,75.21